Terminal Aerodrome Forecast
Issued by NWS Jackson, MS

Home | Current Version | Previous Version | Text Only | Print | Product List | Glossary On
Versions: 1 2 3 4 5 6 7 8 9 10 11 12 13 14 15
649
FTUS44 KJAN 231743
TAFMEI
TAF
KMEI 231743Z 2318/2418 24007KT P6SM FEW030 SCT050
     FM231900 22008KT P6SM VCTS BKN050CB
     FM240200 20004KT P6SM SCT250
     FM241100 VRB02KT P6SM BKN020
     FM241500 22005KT P6SM SCT050=

USA.gov is the U.S. government's official web portal to all federal, state and local government web resources and services.